Terminal Aerodrome Forecast
Issued by NWS

Home | Current Version | Previous Version | Text Only | Print | Product List | Glossary On
Versions: 1 2 3 4 5 6 7 8 9 10 11 12 13 14 15 16 17 18
000
FTPQ31 PGUM 230358 AAA
TAFTRO
TAF AMD
PTRO 230358Z 2304/2324 06012G22KT P6SM VCSH SCT015 BKN120
      TEMPO 2304/2306 4SM SHRA OVC015=

USA.gov is the U.S. government's official web portal to all federal, state and local government web resources and services.